Aérodrome :
LOGIN :

S'inscrire | Disclaimer

   EN    FR    IT 

 










Légende :    VFR   VFR Marginal   IFR   IFR Intensif   IFR Très Intensif
Visi : 
Plafond : 
>= 8 km
>= 3000ft
5 à 8 km
1000 à 3000 ft
1500m à 5 km
500 à 1000 ft
800 à 1500m
200 à 500 ft
< 800m
< 200 ft
Symboles :   Orages  Brouillard  Fortes neiges  Fortes précipitations  Vent > 20 kt
SIGMETs :   Divers  Orages  Givrage  Turbulence  Onde Orograph.  Cendres Volcan.







- Altitude de l'aérodrome : 517 ft
- Code IATA : GML


UKKM - Antonov

DERNIER METAR :
  • 220300Z AUTO 32002MPS 9999 // NCD 13/13 Q1019

METARs EXPIRÉS :
  • 220230Z AUTO 33003MPS 9999 // NCD 13/13 Q1019
  • 220200Z AUTO 33002MPS 9999 // NCD 14/13 Q1018
  • 220130Z AUTO 32002MPS 9999 // NCD 14/13 Q1018
  • 220100Z AUTO 32002MPS 9999 // NCD 15/14 Q1018
  • 220030Z AUTO 33003MPS 9999 // NCD 15/14 Q1018

TAF TAF UKKM
Valide du 22 à 00h jusqu'au 23 à 00h UTC


212301Z 2200/2224 32003MPS CAVOK
BECMG 2206/2207 02005MPS
Pas de NOTAMs connus pour ce terrain.



MET'MAP, la Météo Aéronautique d'un coup d'oeil ! - Copyright ORBIFLY Décembre 2007 - Disclaimer

ORBIFLY MET'MAP TEAM :

Programmation & Développement : Alexandra Zaïnal
Conception & Développement : Baudouin d'Aumeries
Co-Programmation & Développement : Marc-Olivier Méhu
Soutien technique & logistique : Manuel Goepfert

Contact : metmap@orbifly.com




SOURCES & CREDITS :

   NOAA